Hallsboro, North Carolina
Current Conditions -  °F | °C
As of 4:57 AM on Wednesday 26 Nov 2014 (Local Time) from KCPC Reporting Station
Light Rain Light Rain  
Wind Chill: 57°   Ceiling: 300
Heat Index: 57°   Visibility: 5mi
Dew Point: 55°   Wind: 5mph
Humidity: 94%   Direction: 300°WNW
Pressure: 29.75"   Gusts: NA
Location:  34.32°N, 78.6°W
Report Text: KCPC 260957Z AUTO 30004KT 5SM -RA BKN003 OVC009 14/13 A2975 RMK AO2
Loading
Personal Weather Stations






























Interactive Weather Map New forecast layout! Learn more

10-Day Weather Forecast

Advertisements
Track Severe Weather on mobile